createdAt,value
2023-01-29T00:00:11.864Z,102603.47
2023-01-29T00:02:41.232Z,102602.69
2023-01-29T00:05:26.093Z,102603.53
2023-01-29T00:07:53.330Z,102599.06
2023-01-29T00:10:19.717Z,102596.47
2023-01-29T00:12:46.094Z,102596.78
2023-01-29T00:15:12.802Z,102597.66
2023-01-29T00:17:39.197Z,102595.28
2023-01-29T00:20:05.894Z,102597.72
2023-01-29T00:22:32.268Z,102586.53
2023-01-29T00:24:59.176Z,102587.50
2023-01-29T00:27:25.571Z,102588.25
2023-01-29T00:30:08.793Z,102591.91
2023-01-29T00:32:35.929Z,102584.19
2023-01-29T00:35:02.410Z,102576.72
2023-01-29T00:37:28.814Z,102578.38
2023-01-29T00:39:55.271Z,102575.31
2023-01-29T00:42:40.425Z,102579.53
2023-01-29T00:45:07.260Z,102582.09
2023-01-29T00:47:33.923Z,102590.63
2023-01-29T00:50:01.465Z,102580.56
2023-01-29T00:52:28.832Z,102572.25
2023-01-29T00:54:56.770Z,102568.81
2023-01-29T00:57:24.170Z,102567.44
2023-01-29T00:59:50.734Z,102574.25
2023-01-29T01:02:35.856Z,102575.09
2023-01-29T01:05:06.046Z,102585.63
2023-01-29T01:07:32.431Z,102581.31
2023-01-29T01:10:17.897Z,102580.59
2023-01-29T01:12:45.259Z,102586.75
2023-01-29T01:15:11.745Z,102588.47
2023-01-29T01:17:38.238Z,102593.47
2023-01-29T01:20:04.958Z,102595.28
2023-01-29T01:22:31.978Z,102591.06
2023-01-29T01:24:59.170Z,102581.72
2023-01-29T01:27:25.654Z,102586.88
2023-01-29T01:29:52.299Z,102587.72
2023-01-29T01:32:18.846Z,102579.25
2023-01-29T01:34:45.346Z,102582.00
2023-01-29T01:37:12.964Z,102561.59
2023-01-29T01:39:39.465Z,102557.41
2023-01-29T01:42:11.485Z,102541.16
2023-01-29T01:44:58.720Z,102542.06
2023-01-29T01:47:46.294Z,102546.53
2023-01-29T01:50:21.949Z,102544.97
2023-01-29T01:52:50.953Z,102543.28
2023-01-29T01:55:19.452Z,102548.56
2023-01-29T01:57:47.722Z,102550.31
2023-01-29T02:00:16.474Z,102549.31
2023-01-29T02:03:03.135Z,102547.88
2023-01-29T02:05:49.678Z,102550.38
2023-01-29T02:08:38.035Z,102548.81
2023-01-29T02:11:05.929Z,102554.78
2023-01-29T02:13:32.317Z,102554.84
2023-01-29T02:15:58.686Z,102545.69
2023-01-29T02:18:25.072Z,102550.16
2023-01-29T02:21:10.179Z,102547.75
2023-01-29T02:23:55.068Z,102558.00
2023-01-29T02:26:40.056Z,102552.25
2023-01-29T02:29:26.913Z,102575.44
2023-01-29T02:32:12.552Z,102578.97
2023-01-29T02:35:04.625Z,102574.84
2023-01-29T02:37:36.719Z,102587.78
2023-01-29T02:40:15.122Z,102597.13
2023-01-29T02:42:46.907Z,102591.25
2023-01-29T02:45:24.801Z,102591.19
2023-01-29T02:47:57.029Z,102600.56
2023-01-29T02:50:37.248Z,102595.75
2023-01-29T02:53:11.546Z,102598.59
2023-01-29T02:55:58.065Z,102596.00
2023-01-29T02:58:29.408Z,102588.31
2023-01-29T03:01:00.209Z,102575.47
2023-01-29T03:03:53.067Z,102576.25
2023-01-29T03:06:26.194Z,102584.84
2023-01-29T03:09:01.616Z,102578.88
2023-01-29T03:11:32.578Z,102565.31
2023-01-29T03:14:04.348Z,102560.03
2023-01-29T03:16:45.409Z,102560.09
2023-01-29T03:19:18.805Z,102555.88
2023-01-29T03:21:53.732Z,102568.72
2023-01-29T03:24:58.500Z,102569.66
2023-01-29T03:27:47.101Z,102573.97
2023-01-29T03:30:34.945Z,102573.22
2023-01-29T03:33:26.509Z,102572.38
2023-01-29T03:36:00.951Z,102574.94
2023-01-29T03:38:32.081Z,102577.50
2023-01-29T03:41:08.582Z,102578.47
2023-01-29T03:43:39.734Z,102582.84
2023-01-29T03:46:18.943Z,102577.75
2023-01-29T03:48:55.936Z,102584.56
2023-01-29T03:51:27.382Z,102576.09
2023-01-29T03:53:59.473Z,102571.75
2023-01-29T03:56:46.496Z,102571.78
2023-01-29T03:59:20.819Z,102576.28
2023-01-29T04:02:11.225Z,102572.09
2023-01-29T04:04:39.073Z,102572.84
2023-01-29T04:07:10.750Z,102566.91
2023-01-29T04:09:40.982Z,102569.63
2023-01-29T04:12:09.235Z,102564.69
2023-01-29T04:14:39.326Z,102557.94
2023-01-29T04:17:12.341Z,102550.22
2023-01-29T04:19:45.666Z,102552.72
2023-01-29T04:22:15.925Z,102543.44
2023-01-29T04:24:42.689Z,102539.25
2023-01-29T04:27:20.807Z,102537.59
2023-01-29T04:29:57.414Z,102530.75
2023-01-29T04:32:34.202Z,102529.72
2023-01-29T04:35:05.204Z,102525.56
2023-01-29T04:37:43.932Z,102521.44
2023-01-29T04:40:28.948Z,102519.06
2023-01-29T04:43:07.842Z,102520.81
2023-01-29T04:45:39.053Z,102520.94
2023-01-29T04:48:16.428Z,102517.47
2023-01-29T04:50:55.180Z,102521.63
2023-01-29T04:53:30.839Z,102518.38
2023-01-29T04:56:20.660Z,102523.50
2023-01-29T04:58:49.767Z,102516.59
2023-01-29T05:01:17.456Z,102508.31
2023-01-29T05:03:46.733Z,102512.56
2023-01-29T05:06:14.040Z,102517.09
2023-01-29T05:08:41.041Z,102511.81
2023-01-29T05:11:07.792Z,102514.34
2023-01-29T05:13:39.230Z,102514.34
2023-01-29T05:16:15.171Z,102513.50
2023-01-29T05:18:42.100Z,102502.34
2023-01-29T05:21:09.240Z,102506.66
2023-01-29T05:23:35.661Z,102501.53
2023-01-29T05:26:02.085Z,102496.41
2023-01-29T05:28:28.530Z,102488.72
2023-01-29T05:30:56.563Z,102498.16
2023-01-29T05:33:27.264Z,102494.75
2023-01-29T05:35:53.809Z,102497.50
2023-01-29T05:38:20.585Z,102495.69
2023-01-29T05:40:47.528Z,102492.50
2023-01-29T05:43:18.056Z,102489.78
2023-01-29T05:45:52.011Z,102490.00
2023-01-29T05:48:18.401Z,102486.56
2023-01-29T05:50:44.836Z,102477.16
2023-01-29T05:53:11.295Z,102476.31
2023-01-29T05:55:37.728Z,102487.41
2023-01-29T05:58:05.898Z,102484.94
2023-01-29T06:00:32.421Z,102483.34
2023-01-29T06:02:58.948Z,102489.19
2023-01-29T06:05:25.457Z,102498.59
2023-01-29T06:07:51.844Z,102502.28
2023-01-29T06:10:19.028Z,102499.63
2023-01-29T06:12:45.702Z,102509.78
2023-01-29T06:15:12.871Z,102516.66
2023-01-29T06:17:39.266Z,102506.47
2023-01-29T06:20:05.988Z,102510.75
2023-01-29T06:22:33.058Z,102521.16
2023-01-29T06:24:59.537Z,102526.47
2023-01-29T06:27:25.914Z,102524.72
2023-01-29T06:29:52.323Z,102532.22
2023-01-29T06:32:18.753Z,102537.16
2023-01-29T06:34:45.200Z,102548.25
2023-01-29T06:37:11.559Z,102547.22
2023-01-29T06:39:37.963Z,102542.41
2023-01-29T06:42:04.384Z,102547.72
2023-01-29T06:44:30.751Z,102541.31
2023-01-29T06:46:57.136Z,102546.41
2023-01-29T06:49:23.572Z,102546.31
2023-01-29T06:51:49.944Z,102539.47
2023-01-29T06:54:16.336Z,102535.94
2023-01-29T06:56:42.735Z,102532.63
2023-01-29T06:59:09.116Z,102532.50
2023-01-29T07:01:40.895Z,102513.84
2023-01-29T07:04:07.346Z,102511.16
2023-01-29T07:06:34.173Z,102506.94
2023-01-29T07:09:00.835Z,102518.91
2023-01-29T07:11:27.229Z,102517.28
2023-01-29T07:13:53.580Z,102519.75
2023-01-29T07:16:19.966Z,102513.06
2023-01-29T07:18:46.336Z,102524.03
2023-01-29T07:21:12.740Z,102540.19
2023-01-29T07:23:39.135Z,102535.75
2023-01-29T07:26:06.132Z,102534.09
2023-01-29T07:28:35.847Z,102530.63
2023-01-29T07:31:02.228Z,102526.59
2023-01-29T07:33:28.602Z,102528.00
2023-01-29T07:35:54.963Z,102534.03
2023-01-29T07:38:21.366Z,102529.94
2023-01-29T07:40:48.040Z,102530.88
2023-01-29T07:43:14.592Z,102515.56
2023-01-29T07:45:41.070Z,102508.56
2023-01-29T07:48:09.744Z,102507.47
2023-01-29T07:50:36.415Z,102513.53
2023-01-29T07:53:02.854Z,102515.50
2023-01-29T07:55:29.253Z,102525.81
2023-01-29T07:57:59.906Z,102532.47
2023-01-29T08:00:26.410Z,102509.03
2023-01-29T08:02:52.884Z,102509.03
2023-01-29T08:05:19.454Z,102502.25
2023-01-29T08:07:49.353Z,102504.03
2023-01-29T08:10:24.127Z,102505.56
2023-01-29T08:12:54.345Z,102511.53
2023-01-29T08:15:20.738Z,102499.34
2023-01-29T08:17:57.479Z,102508.69
2023-01-29T08:20:24.611Z,102508.75
2023-01-29T08:22:58.108Z,102507.09
2023-01-29T08:25:24.946Z,102511.31
2023-01-29T08:27:51.551Z,102502.03
2023-01-29T08:30:18.658Z,102512.09
2023-01-29T08:32:45.121Z,102506.88
2023-01-29T08:35:11.525Z,102506.34
2023-01-29T08:37:37.928Z,102504.59
2023-01-29T08:40:04.562Z,102511.31
2023-01-29T08:42:30.948Z,102508.84
2023-01-29T08:44:57.331Z,102500.22
2023-01-29T08:47:23.792Z,102503.44
2023-01-29T08:49:50.149Z,102501.63
2023-01-29T08:52:16.586Z,102499.41
2023-01-29T08:54:42.971Z,102498.34
2023-01-29T08:57:09.359Z,102505.16
2023-01-29T08:59:35.808Z,102503.34
2023-01-29T09:02:02.207Z,102503.38
2023-01-29T09:04:28.717Z,102507.78
2023-01-29T09:06:55.105Z,102498.31
2023-01-29T09:09:21.474Z,102488.16
2023-01-29T09:11:47.908Z,102486.22
2023-01-29T09:14:14.702Z,102486.22
2023-01-29T09:16:41.186Z,102480.94
2023-01-29T09:19:08.241Z,102480.91
2023-01-29T09:21:34.653Z,102477.72
2023-01-29T09:24:01.040Z,102476.75
2023-01-29T09:26:27.533Z,102480.28
2023-01-29T09:28:53.928Z,102471.81
2023-01-29T09:31:20.407Z,102470.38
2023-01-29T09:33:46.860Z,102462.56
2023-01-29T09:36:13.356Z,102456.59
2023-01-29T09:38:39.866Z,102464.25
2023-01-29T09:41:13.750Z,102450.59
2023-01-29T09:43:46.035Z,102452.19
2023-01-29T09:46:22.784Z,102456.38
2023-01-29T09:48:52.848Z,102440.00
2023-01-29T09:51:29.986Z,102440.69
2023-01-29T09:54:14.961Z,102443.34
2023-01-29T09:56:42.271Z,102439.84
2023-01-29T09:59:11.001Z,102437.50
2023-01-29T10:01:37.651Z,102432.25
2023-01-29T10:04:22.968Z,102424.31
2023-01-29T10:07:08.183Z,102428.56
2023-01-29T10:09:46.820Z,102430.13
2023-01-29T10:12:16.261Z,102431.72
2023-01-29T10:15:01.214Z,102435.16
2023-01-29T10:17:45.372Z,102446.94
2023-01-29T10:20:14.896Z,102443.34
2023-01-29T10:22:42.062Z,102438.19
2023-01-29T10:25:13.557Z,102449.16
2023-01-29T10:27:41.166Z,102437.91
2023-01-29T10:30:09.529Z,102435.28
2023-01-29T10:32:36.967Z,102436.88
2023-01-29T10:35:18.027Z,102434.16
2023-01-29T10:37:44.879Z,102433.38
2023-01-29T10:40:21.959Z,102431.59
2023-01-29T10:42:52.893Z,102435.03
2023-01-29T10:45:41.387Z,102421.06
2023-01-29T10:48:07.723Z,102422.59
2023-01-29T10:50:42.972Z,102413.28
2023-01-29T10:53:18.459Z,102413.22
2023-01-29T10:56:10.810Z,102408.84
2023-01-29T10:58:52.193Z,102405.19
2023-01-29T11:01:18.596Z,102404.94
2023-01-29T11:03:45.045Z,102402.31
2023-01-29T11:06:25.333Z,102395.31
2023-01-29T11:09:00.949Z,102390.41
2023-01-29T11:11:50.645Z,102384.91
2023-01-29T11:14:21.509Z,102378.78
2023-01-29T11:16:48.621Z,102381.28
2023-01-29T11:19:15.831Z,102378.13
2023-01-29T11:21:59.015Z,102369.34
2023-01-29T11:24:26.054Z,102373.41
2023-01-29T11:26:54.205Z,102374.94
2023-01-29T11:29:35.931Z,102382.47
2023-01-29T11:32:04.721Z,102372.91
2023-01-29T11:34:31.297Z,102370.50
2023-01-29T11:37:05.059Z,102366.09
2023-01-29T11:39:32.198Z,102364.16
2023-01-29T11:42:00.382Z,102361.59
2023-01-29T11:44:31.506Z,102355.44
2023-01-29T11:47:07.552Z,102343.34
2023-01-29T11:49:34.748Z,102336.34
2023-01-29T11:52:03.518Z,102336.28
2023-01-29T11:54:32.809Z,102335.34
2023-01-29T11:56:59.673Z,102318.28
2023-01-29T11:59:33.686Z,102316.78
2023-01-29T12:02:23.382Z,102300.31
2023-01-29T12:04:50.415Z,102300.94
2023-01-29T12:07:17.990Z,102303.41
2023-01-29T12:09:53.295Z,102300.94
2023-01-29T12:12:25.697Z,102299.34
2023-01-29T12:15:02.627Z,102279.22
2023-01-29T12:17:30.986Z,102273.66
2023-01-29T12:19:59.824Z,102274.47
2023-01-29T12:22:46.506Z,102254.41
2023-01-29T12:25:19.091Z,102243.38
2023-01-29T12:27:48.527Z,102240.09
2023-01-29T12:30:18.409Z,102236.56
2023-01-29T12:32:50.087Z,102220.03
2023-01-29T12:35:25.647Z,102210.59
2023-01-29T12:38:12.353Z,102204.53
2023-01-29T12:40:47.801Z,102188.06
2023-01-29T12:43:18.523Z,102190.78
2023-01-29T12:45:48.414Z,102189.38
2023-01-29T12:48:19.912Z,102179.75
2023-01-29T12:50:47.747Z,102180.50
2023-01-29T12:53:14.154Z,102174.03
2023-01-29T12:55:43.644Z,102178.28
2023-01-29T12:58:16.114Z,102166.09
2023-01-29T13:00:48.352Z,102161.25
2023-01-29T13:03:24.563Z,102152.50
2023-01-29T13:05:59.989Z,102144.56
2023-01-29T13:08:31.700Z,102139.56
2023-01-29T13:11:00.962Z,102139.44
2023-01-29T13:13:36.455Z,102133.28
2023-01-29T13:16:04.383Z,102133.25
2023-01-29T13:18:40.105Z,102132.38
2023-01-29T13:21:08.836Z,102132.19
2023-01-29T13:23:37.878Z,102132.69
2023-01-29T13:26:05.710Z,102130.97
2023-01-29T13:28:32.475Z,102133.72
2023-01-29T13:31:17.448Z,102129.59
2023-01-29T13:33:51.650Z,102129.69
2023-01-29T13:36:20.724Z,102130.97
2023-01-29T13:38:54.240Z,102136.09
2023-01-29T13:41:20.719Z,102138.66
2023-01-29T13:43:50.071Z,102138.38
2023-01-29T13:46:21.222Z,102140.94
2023-01-29T13:48:50.109Z,102135.63
2023-01-29T13:51:27.235Z,102138.28
2023-01-29T13:54:00.644Z,102134.72
2023-01-29T13:56:41.619Z,102145.00
2023-01-29T13:59:20.758Z,102145.78
2023-01-29T14:01:47.191Z,102147.38
2023-01-29T14:04:19.471Z,102135.41
2023-01-29T14:06:47.500Z,102131.03
2023-01-29T14:09:32.783Z,102128.31
2023-01-29T14:11:59.641Z,102124.75
2023-01-29T14:14:44.641Z,102125.13
2023-01-29T14:17:11.952Z,102126.41
2023-01-29T14:19:38.437Z,102119.53
2023-01-29T14:22:05.205Z,102112.72
2023-01-29T14:24:31.636Z,102118.66
2023-01-29T14:26:58.192Z,102124.63
2023-01-29T14:29:38.124Z,102116.00
2023-01-29T14:32:13.189Z,102113.50
2023-01-29T14:35:00.145Z,102115.47
2023-01-29T14:37:32.910Z,102117.72
2023-01-29T14:40:07.869Z,102113.56
2023-01-29T14:42:36.374Z,102112.81
2023-01-29T14:45:24.206Z,102111.69
2023-01-29T14:47:50.673Z,102109.41
2023-01-29T14:50:29.453Z,102105.84
2023-01-29T14:53:01.715Z,102105.69
2023-01-29T14:55:39.448Z,102102.22
2023-01-29T14:58:06.489Z,102099.72
2023-01-29T15:00:44.258Z,102100.47
2023-01-29T15:03:19.465Z,102104.72
2023-01-29T15:05:46.779Z,102101.47
2023-01-29T15:08:13.172Z,102100.69
2023-01-29T15:10:40.100Z,102100.84
2023-01-29T15:13:09.380Z,102102.44
2023-01-29T15:15:54.130Z,102099.09
2023-01-29T15:18:20.719Z,102095.78
2023-01-29T15:20:47.399Z,102096.66
2023-01-29T15:23:30.319Z,102090.03
2023-01-29T15:25:58.595Z,102084.41
2023-01-29T15:28:25.187Z,102087.91
2023-01-29T15:30:55.548Z,102086.16
2023-01-29T15:33:22.050Z,102075.94
2023-01-29T15:35:51.666Z,102078.75
2023-01-29T15:38:25.474Z,102066.56
2023-01-29T15:41:21.505Z,102072.63
2023-01-29T15:43:51.618Z,102065.13
2023-01-29T15:46:24.669Z,102066.69
2023-01-29T15:48:51.846Z,102062.38
2023-01-29T15:51:20.408Z,102064.97
2023-01-29T15:53:51.816Z,102059.81
2023-01-29T15:56:19.910Z,102050.53
2023-01-29T15:58:51.043Z,102054.91
2023-01-29T16:01:17.929Z,102061.66
2023-01-29T16:03:45.083Z,102053.19
2023-01-29T16:06:11.798Z,102052.41
2023-01-29T16:08:39.300Z,102060.91
2023-01-29T16:11:07.378Z,102065.13
2023-01-29T16:13:35.926Z,102059.16
2023-01-29T16:16:04.421Z,102052.34
2023-01-29T16:18:39.573Z,102055.97
2023-01-29T16:21:16.724Z,102049.69
2023-01-29T16:23:49.292Z,102049.78
2023-01-29T16:26:17.763Z,102042.06
2023-01-29T16:28:45.422Z,102034.47
2023-01-29T16:31:13.852Z,102032.06
2023-01-29T16:33:42.329Z,102028.56
2023-01-29T16:36:35.206Z,102016.63
2023-01-29T16:39:05.258Z,102014.06
2023-01-29T16:41:33.333Z,102008.81
2023-01-29T16:44:04.239Z,102007.16
2023-01-29T16:46:47.139Z,102002.06
2023-01-29T16:49:26.134Z,102009.75
2023-01-29T16:51:53.626Z,102002.91
2023-01-29T16:54:27.529Z,101997.84
2023-01-29T16:56:59.133Z,102002.16
2023-01-29T16:59:39.887Z,102002.91
2023-01-29T17:02:18.254Z,102008.13
2023-01-29T17:04:45.819Z,102003.00
2023-01-29T17:07:16.452Z,102007.16
2023-01-29T17:09:42.950Z,102005.47
2023-01-29T17:12:16.740Z,102003.78
2023-01-29T17:14:51.893Z,102003.00
2023-01-29T17:17:18.891Z,102001.31
2023-01-29T17:19:45.317Z,102003.16
2023-01-29T17:22:15.100Z,101987.56
2023-01-29T17:24:41.991Z,101983.41
2023-01-29T17:27:16.935Z,101979.84
2023-01-29T17:29:43.402Z,101981.56
2023-01-29T17:32:10.094Z,101977.47
2023-01-29T17:34:37.348Z,101983.31
2023-01-29T17:37:03.803Z,101979.09
2023-01-29T17:39:30.307Z,101985.91
2023-01-29T17:41:57.930Z,101985.19
2023-01-29T17:44:26.181Z,101971.50
2023-01-29T17:46:52.656Z,101972.44
2023-01-29T17:49:23.968Z,101965.47
2023-01-29T17:51:51.107Z,101970.75
2023-01-29T17:54:17.566Z,101973.25
2023-01-29T17:56:43.960Z,101963.75
2023-01-29T17:59:17.650Z,101971.69
2023-01-29T18:01:45.016Z,101963.03
2023-01-29T18:04:11.964Z,101964.78
2023-01-29T18:06:39.470Z,101966.44
2023-01-29T18:09:05.906Z,101954.41
2023-01-29T18:11:32.449Z,101942.25
2023-01-29T18:13:58.885Z,101940.59
2023-01-29T18:16:31.208Z,101928.47
2023-01-29T18:18:57.710Z,101934.44
2023-01-29T18:21:24.268Z,101922.50
2023-01-29T18:23:50.688Z,101927.66
2023-01-29T18:26:17.674Z,101915.63
2023-01-29T18:28:44.214Z,101917.34
2023-01-29T18:31:13.022Z,101906.31
2023-01-29T18:33:40.301Z,101914.78
2023-01-29T18:36:07.109Z,101919.94
2023-01-29T18:38:33.499Z,101925.81
2023-01-29T18:41:03.906Z,101931.13
2023-01-29T18:43:30.340Z,101922.34
2023-01-29T18:45:59.983Z,101920.75
2023-01-29T18:48:26.605Z,101913.97
2023-01-29T18:50:53.072Z,101912.03
2023-01-29T18:53:19.541Z,101906.06
2023-01-29T18:55:53.643Z,101901.75
2023-01-29T18:58:25.910Z,101896.78
2023-01-29T19:00:56.075Z,101886.50
2023-01-29T19:03:22.526Z,101885.56
2023-01-29T19:05:48.961Z,101881.94
2023-01-29T19:08:15.341Z,101877.72
2023-01-29T19:10:41.834Z,101878.78
2023-01-29T19:13:08.351Z,101882.00
2023-01-29T19:15:35.077Z,101879.38
2023-01-29T19:18:01.827Z,101880.34
2023-01-29T19:20:28.255Z,101872.72
2023-01-29T19:22:54.741Z,101876.13
2023-01-29T19:25:21.483Z,101878.56
2023-01-29T19:27:48.002Z,101871.88
2023-01-29T19:30:14.702Z,101869.16
2023-01-29T19:32:41.354Z,101862.13
2023-01-29T19:35:07.880Z,101855.22
2023-01-29T19:37:34.419Z,101858.09
2023-01-29T19:40:00.939Z,101843.38
2023-01-29T19:42:27.832Z,101843.50
2023-01-29T19:44:54.220Z,101835.97
2023-01-29T19:47:20.779Z,101821.44
2023-01-29T19:49:47.210Z,101808.59
2023-01-29T19:52:49.464Z,101813.66
2023-01-29T19:55:17.895Z,101809.25
2023-01-29T19:57:44.667Z,101806.34
2023-01-29T20:00:12.144Z,101808.78
2023-01-29T20:02:38.580Z,101807.84
2023-01-29T20:05:05.518Z,101791.59
2023-01-29T20:07:31.882Z,101799.47
2023-01-29T20:09:58.349Z,101801.19
2023-01-29T20:12:26.961Z,101799.41
2023-01-29T20:14:53.385Z,101786.59
2023-01-29T20:17:19.788Z,101777.41
2023-01-29T20:19:46.745Z,101776.31
2023-01-29T20:22:13.667Z,101771.34
2023-01-29T20:24:42.361Z,101764.28
2023-01-29T20:27:11.791Z,101766.84
2023-01-29T20:29:38.496Z,101748.00
2023-01-29T20:32:05.348Z,101738.50
2023-01-29T20:34:31.913Z,101724.81
2023-01-29T20:36:58.328Z,101736.75
2023-01-29T20:39:24.838Z,101736.75
2023-01-29T20:41:51.293Z,101728.94
2023-01-29T20:44:17.685Z,101723.06
2023-01-29T20:46:44.097Z,101724.72
2023-01-29T20:49:11.845Z,101719.56
2023-01-29T20:51:38.338Z,101715.25
2023-01-29T20:54:04.777Z,101725.44
2023-01-29T20:56:35.928Z,101729.84
2023-01-29T20:59:03.895Z,101730.50
2023-01-29T21:01:30.313Z,101720.16
2023-01-29T21:03:56.763Z,101718.56
2023-01-29T21:06:23.183Z,101716.75
2023-01-29T21:08:49.586Z,101709.84
2023-01-29T21:11:16.029Z,101711.06
2023-01-29T21:13:43.936Z,101707.19
2023-01-29T21:16:11.296Z,101716.66
2023-01-29T21:18:37.811Z,101715.88
2023-01-29T21:21:04.277Z,101716.91
2023-01-29T21:23:30.679Z,101706.53
2023-01-29T21:26:01.020Z,101708.13
2023-01-29T21:28:27.444Z,101699.28
2023-01-29T21:31:02.198Z,101685.88
2023-01-29T21:33:28.613Z,101686.53
2023-01-29T21:35:58.558Z,101679.97
2023-01-29T21:38:25.101Z,101685.44
2023-01-29T21:40:51.511Z,101681.94
2023-01-29T21:43:17.996Z,101690.00
2023-01-29T21:45:44.422Z,101698.31
2023-01-29T21:48:11.313Z,101704.44
2023-01-29T21:50:38.289Z,101698.91
2023-01-29T21:53:04.771Z,101703.47
2023-01-29T21:55:32.374Z,101709.19
2023-01-29T21:58:00.149Z,101719.63
2023-01-29T22:00:26.534Z,101721.88
2023-01-29T22:02:53.382Z,101712.59
2023-01-29T22:05:20.491Z,101722.13
2023-01-29T22:07:47.797Z,101717.50
2023-01-29T22:10:15.478Z,101722.63
2023-01-29T22:12:42.335Z,101717.50
2023-01-29T22:15:09.280Z,101710.84
2023-01-29T22:17:35.710Z,101699.38
2023-01-29T22:20:02.245Z,101693.41
2023-01-29T22:22:28.701Z,101695.88
2023-01-29T22:24:58.247Z,101696.81
2023-01-29T22:27:24.823Z,101693.31
2023-01-29T22:29:51.414Z,101699.19
2023-01-29T22:32:17.899Z,101690.66
2023-01-29T22:34:44.394Z,101697.28
2023-01-29T22:37:10.912Z,101683.69
2023-01-29T22:39:37.331Z,101678.53
2023-01-29T22:42:03.791Z,101692.16
2023-01-29T22:44:30.382Z,101674.22
2023-01-29T22:46:56.818Z,101673.22
2023-01-29T22:49:25.071Z,101666.41
2023-01-29T22:52:09.854Z,101661.34
2023-01-29T22:54:39.935Z,101655.19
2023-01-29T22:57:06.762Z,101641.31
2023-01-29T22:59:33.642Z,101633.88
2023-01-29T23:02:00.182Z,101621.84
2023-01-29T23:04:26.734Z,101600.47
2023-01-29T23:06:53.158Z,101606.47
2023-01-29T23:09:19.613Z,101576.31
2023-01-29T23:11:46.081Z,101548.75
2023-01-29T23:14:12.472Z,101553.63
2023-01-29T23:16:38.871Z,101546.00
2023-01-29T23:19:05.417Z,101554.66
2023-01-29T23:21:31.806Z,101539.13
2023-01-29T23:23:59.235Z,101550.13
2023-01-29T23:26:44.662Z,101542.41
2023-01-29T23:29:11.139Z,101564.66
2023-01-29T23:31:37.724Z,101548.38
2023-01-29T23:34:04.540Z,101573.22
2023-01-29T23:36:30.922Z,101550.25
2023-01-29T23:38:57.278Z,101559.59
2023-01-29T23:41:23.653Z,101555.19
2023-01-29T23:43:50.130Z,101549.16
2023-01-29T23:46:16.554Z,101536.28
2023-01-29T23:48:42.991Z,101537.94
2023-01-29T23:51:10.670Z,101529.38
2023-01-29T23:53:37.080Z,101525.78
2023-01-29T23:56:04.852Z,101508.69
2023-01-29T23:58:32.238Z,101506.03
